sensor_id;sensor_type;location;lat;lon;timestamp;temperature;humidity
23377;DHT22;14353;46.070;13.222;2022-12-18T00:00:07;18.80;45.60
23377;DHT22;14353;46.070;13.222;2022-12-18T00:02:33;18.80;45.60
23377;DHT22;14353;46.070;13.222;2022-12-18T00:04:59;18.80;45.70
23377;DHT22;14353;46.070;13.222;2022-12-18T00:07:30;18.80;45.60
23377;DHT22;14353;46.070;13.222;2022-12-18T00:09:58;18.80;45.60
23377;DHT22;14353;46.070;13.222;2022-12-18T00:12:33;18.70;45.50
23377;DHT22;14353;46.070;13.222;2022-12-18T00:14:59;18.70;45.60
23377;DHT22;14353;46.070;13.222;2022-12-18T00:17:27;18.70;45.60
23377;DHT22;14353;46.070;13.222;2022-12-18T00:19:53;18.70;45.50
23377;DHT22;14353;46.070;13.222;2022-12-18T00:22:24;18.70;45.50
23377;DHT22;14353;46.070;13.222;2022-12-18T00:24:50;18.70;45.50
23377;DHT22;14353;46.070;13.222;2022-12-18T00:27:16;18.70;45.50
23377;DHT22;14353;46.070;13.222;2022-12-18T00:29:42;18.70;45.50
23377;DHT22;14353;46.070;13.222;2022-12-18T00:32:07;18.70;45.50
23377;DHT22;14353;46.070;13.222;2022-12-18T00:34:36;18.80;45.50
23377;DHT22;14353;46.070;13.222;2022-12-18T00:37:07;18.70;45.50
23377;DHT22;14353;46.070;13.222;2022-12-18T00:39:33;18.70;45.50
23377;DHT22;14353;46.070;13.222;2022-12-18T00:41:59;18.70;45.50
23377;DHT22;14353;46.070;13.222;2022-12-18T00:44:43;18.70;46.10
23377;DHT22;14353;46.070;13.222;2022-12-18T00:47:09;18.70;45.50
23377;DHT22;14353;46.070;13.222;2022-12-18T00:49:38;18.70;45.50
23377;DHT22;14353;46.070;13.222;2022-12-18T00:52:06;18.70;45.40
23377;DHT22;14353;46.070;13.222;2022-12-18T00:54:32;18.70;45.40
23377;DHT22;14353;46.070;13.222;2022-12-18T00:56:58;18.70;45.40
23377;DHT22;14353;46.070;13.222;2022-12-18T00:59:27;18.70;45.40
23377;DHT22;14353;46.070;13.222;2022-12-18T01:01:55;18.70;45.40
23377;DHT22;14353;46.070;13.222;2022-12-18T01:04:36;18.60;45.30
23377;DHT22;14353;46.070;13.222;2022-12-18T01:07:02;18.60;45.30
23377;DHT22;14353;46.070;13.222;2022-12-18T01:09:28;18.70;45.40
23377;DHT22;14353;46.070;13.222;2022-12-18T01:12:00;18.60;45.20
23377;DHT22;14353;46.070;13.222;2022-12-18T01:14:29;18.60;45.20
23377;DHT22;14353;46.070;13.222;2022-12-18T01:17:01;18.60;45.20
23377;DHT22;14353;46.070;13.222;2022-12-18T01:19:36;18.60;45.20
23377;DHT22;14353;46.070;13.222;2022-12-18T01:22:04;18.60;45.20
23377;DHT22;14353;46.070;13.222;2022-12-18T01:24:33;18.60;45.20
23377;DHT22;14353;46.070;13.222;2022-12-18T01:27:02;18.60;45.20
23377;DHT22;14353;46.070;13.222;2022-12-18T01:29:28;18.60;45.20
23377;DHT22;14353;46.070;13.222;2022-12-18T01:31:57;18.60;45.20
23377;DHT22;14353;46.070;13.222;2022-12-18T01:34:24;18.60;45.10
23377;DHT22;14353;46.070;13.222;2022-12-18T01:36:55;18.60;45.20
23377;DHT22;14353;46.070;13.222;2022-12-18T01:39:21;18.60;45.10
23377;DHT22;14353;46.070;13.222;2022-12-18T01:41:47;18.60;45.10
23377;DHT22;14353;46.070;13.222;2022-12-18T01:50:00;18.60;45.10
23377;DHT22;14353;46.070;13.222;2022-12-18T01:52:31;18.60;45.10
23377;DHT22;14353;46.070;13.222;2022-12-18T01:54:59;18.60;45.10
23377;DHT22;14353;46.070;13.222;2022-12-18T01:57:29;18.60;45.10
23377;DHT22;14353;46.070;13.222;2022-12-18T02:00:05;18.60;45.10
23377;DHT22;14353;46.070;13.222;2022-12-18T02:02:32;18.60;45.10
23377;DHT22;14353;46.070;13.222;2022-12-18T02:05:10;18.60;45.10
23377;DHT22;14353;46.070;13.222;2022-12-18T02:16:21;18.60;45.00
23377;DHT22;14353;46.070;13.222;2022-12-18T02:18:58;18.50;45.00
23377;DHT22;14353;46.070;13.222;2022-12-18T02:24:41;18.50;45.00
23377;DHT22;14353;46.070;13.222;2022-12-18T02:27:10;18.60;45.10
23377;DHT22;14353;46.070;13.222;2022-12-18T02:32:06;18.50;45.00
23377;DHT22;14353;46.070;13.222;2022-12-18T02:34:38;18.50;45.00
23377;DHT22;14353;46.070;13.222;2022-12-18T02:37:07;18.50;44.90
23377;DHT22;14353;46.070;13.222;2022-12-18T02:39:38;18.50;45.00
23377;DHT22;14353;46.070;13.222;2022-12-18T02:42:08;18.50;44.90
23377;DHT22;14353;46.070;13.222;2022-12-18T02:44:49;18.50;44.90
23377;DHT22;14353;46.070;13.222;2022-12-18T02:47:17;18.50;44.90
23377;DHT22;14353;46.070;13.222;2022-12-18T02:55:11;18.40;44.90
23377;DHT22;14353;46.070;13.222;2022-12-18T02:57:46;18.50;44.90
23377;DHT22;14353;46.070;13.222;2022-12-18T03:00:18;18.50;44.90
23377;DHT22;14353;46.070;13.222;2022-12-18T03:03:19;18.50;44.90
23377;DHT22;14353;46.070;13.222;2022-12-18T03:05:55;18.50;44.90
23377;DHT22;14353;46.070;13.222;2022-12-18T03:08:45;18.50;44.90
23377;DHT22;14353;46.070;13.222;2022-12-18T03:11:13;18.50;44.90
23377;DHT22;14353;46.070;13.222;2022-12-18T03:13:43;18.40;44.80
23377;DHT22;14353;46.070;13.222;2022-12-18T03:16:27;18.40;44.80
23377;DHT22;14353;46.070;13.222;2022-12-18T03:19:09;18.40;44.80
23377;DHT22;14353;46.070;13.222;2022-12-18T03:21:42;18.40;44.90
23377;DHT22;14353;46.070;13.222;2022-12-18T03:24:09;18.40;44.80
23377;DHT22;14353;46.070;13.222;2022-12-18T03:26:44;18.40;44.80
23377;DHT22;14353;46.070;13.222;2022-12-18T03:32:18;18.40;44.80
23377;DHT22;14353;46.070;13.222;2022-12-18T03:34:49;18.40;44.80
23377;DHT22;14353;46.070;13.222;2022-12-18T03:37:18;18.40;44.80
23377;DHT22;14353;46.070;13.222;2022-12-18T03:39:44;18.40;44.80
23377;DHT22;14353;46.070;13.222;2022-12-18T03:42:51;18.40;44.80
23377;DHT22;14353;46.070;13.222;2022-12-18T03:45:27;18.40;44.80
23377;DHT22;14353;46.070;13.222;2022-12-18T03:51:16;18.40;44.80
23377;DHT22;14353;46.070;13.222;2022-12-18T03:53:49;18.40;44.80
23377;DHT22;14353;46.070;13.222;2022-12-18T03:56:18;18.30;44.80
23377;DHT22;14353;46.070;13.222;2022-12-18T03:59:02;18.30;44.80
23377;DHT22;14353;46.070;13.222;2022-12-18T04:01:33;18.30;44.80
23377;DHT22;14353;46.070;13.222;2022-12-18T04:04:03;18.30;44.80
23377;DHT22;14353;46.070;13.222;2022-12-18T04:06:37;18.30;44.80
23377;DHT22;14353;46.070;13.222;2022-12-18T04:09:04;18.30;44.80
23377;DHT22;14353;46.070;13.222;2022-12-18T04:11:30;18.30;44.70
23377;DHT22;14353;46.070;13.222;2022-12-18T04:13:57;18.30;44.80
23377;DHT22;14353;46.070;13.222;2022-12-18T04:16:24;18.30;44.70
23377;DHT22;14353;46.070;13.222;2022-12-18T04:18:55;18.30;44.70
23377;DHT22;14353;46.070;13.222;2022-12-18T04:21:24;18.30;44.70
23377;DHT22;14353;46.070;13.222;2022-12-18T04:23:52;18.30;44.70
23377;DHT22;14353;46.070;13.222;2022-12-18T04:26:18;18.30;44.70
23377;DHT22;14353;46.070;13.222;2022-12-18T04:28:47;18.30;44.70
23377;DHT22;14353;46.070;13.222;2022-12-18T04:31:28;18.30;44.70
23377;DHT22;14353;46.070;13.222;2022-12-18T04:33:53;18.30;44.70
23377;DHT22;14353;46.070;13.222;2022-12-18T04:36:19;18.30;44.70
23377;DHT22;14353;46.070;13.222;2022-12-18T04:38:45;18.30;44.70
23377;DHT22;14353;46.070;13.222;2022-12-18T04:41:17;18.30;44.70
23377;DHT22;14353;46.070;13.222;2022-12-18T04:43:46;18.20;44.60
23377;DHT22;14353;46.070;13.222;2022-12-18T04:46:14;18.30;44.70
23377;DHT22;14353;46.070;13.222;2022-12-18T04:48:45;18.20;44.60
23377;DHT22;14353;46.070;13.222;2022-12-18T04:51:18;18.20;44.70
23377;DHT22;14353;46.070;13.222;2022-12-18T04:53:44;18.20;44.70
23377;DHT22;14353;46.070;13.222;2022-12-18T04:56:21;18.20;44.70
23377;DHT22;14353;46.070;13.222;2022-12-18T04:58:50;18.20;44.70
23377;DHT22;14353;46.070;13.222;2022-12-18T05:01:20;18.20;44.70
23377;DHT22;14353;46.070;13.222;2022-12-18T05:03:57;18.20;44.60
23377;DHT22;14353;46.070;13.222;2022-12-18T05:06:23;18.20;44.60
23377;DHT22;14353;46.070;13.222;2022-12-18T05:08:54;18.20;44.70
23377;DHT22;14353;46.070;13.222;2022-12-18T05:11:23;18.20;44.70
23377;DHT22;14353;46.070;13.222;2022-12-18T05:13:49;18.20;44.70
23377;DHT22;14353;46.070;13.222;2022-12-18T05:16:15;18.20;44.60
23377;DHT22;14353;46.070;13.222;2022-12-18T05:18:45;18.20;44.70
23377;DHT22;14353;46.070;13.222;2022-12-18T05:21:11;18.20;44.70
23377;DHT22;14353;46.070;13.222;2022-12-18T05:23:40;18.20;44.70
23377;DHT22;14353;46.070;13.222;2022-12-18T05:26:06;18.20;44.70
23377;DHT22;14353;46.070;13.222;2022-12-18T05:28:36;18.20;44.70
23377;DHT22;14353;46.070;13.222;2022-12-18T05:31:03;18.20;44.70
23377;DHT22;14353;46.070;13.222;2022-12-18T05:33:35;18.20;44.70
23377;DHT22;14353;46.070;13.222;2022-12-18T05:36:06;18.20;44.70
23377;DHT22;14353;46.070;13.222;2022-12-18T05:38:34;18.10;44.60
23377;DHT22;14353;46.070;13.222;2022-12-18T05:41:01;18.20;44.70
23377;DHT22;14353;46.070;13.222;2022-12-18T05:43:30;18.10;44.60
23377;DHT22;14353;46.070;13.222;2022-12-18T05:45:56;18.10;44.60
23377;DHT22;14353;46.070;13.222;2022-12-18T05:48:25;18.10;44.60
23377;DHT22;14353;46.070;13.222;2022-12-18T05:50:51;18.10;44.60
23377;DHT22;14353;46.070;13.222;2022-12-18T05:53:25;18.10;44.60
23377;DHT22;14353;46.070;13.222;2022-12-18T05:56:07;18.10;44.60
23377;DHT22;14353;46.070;13.222;2022-12-18T05:59:02;18.10;44.60
23377;DHT22;14353;46.070;13.222;2022-12-18T06:01:28;18.10;44.60
23377;DHT22;14353;46.070;13.222;2022-12-18T06:03:57;18.10;44.60
23377;DHT22;14353;46.070;13.222;2022-12-18T06:06:25;18.10;44.60
23377;DHT22;14353;46.070;13.222;2022-12-18T06:08:52;18.10;44.60
23377;DHT22;14353;46.070;13.222;2022-12-18T06:11:25;18.10;44.60
23377;DHT22;14353;46.070;13.222;2022-12-18T06:13:55;18.10;44.60
23377;DHT22;14353;46.070;13.222;2022-12-18T06:16:21;18.10;44.60
23377;DHT22;14353;46.070;13.222;2022-12-18T06:18:50;18.10;44.60
23377;DHT22;14353;46.070;13.222;2022-12-18T06:21:15;18.10;44.60
23377;DHT22;14353;46.070;13.222;2022-12-18T06:23:44;18.10;44.60
23377;DHT22;14353;46.070;13.222;2022-12-18T06:26:11;18.10;44.60
23377;DHT22;14353;46.070;13.222;2022-12-18T06:28:38;18.10;44.60
23377;DHT22;14353;46.070;13.222;2022-12-18T06:31:04;18.00;44.50
23377;DHT22;14353;46.070;13.222;2022-12-18T06:33:30;18.10;44.60
23377;DHT22;14353;46.070;13.222;2022-12-18T06:36:08;18.00;44.50
23377;DHT22;14353;46.070;13.222;2022-12-18T06:38:56;18.00;44.50
23377;DHT22;14353;46.070;13.222;2022-12-18T06:41:23;18.00;44.50
23377;DHT22;14353;46.070;13.222;2022-12-18T06:43:51;18.00;44.50
23377;DHT22;14353;46.070;13.222;2022-12-18T06:46:20;18.00;44.50
23377;DHT22;14353;46.070;13.222;2022-12-18T06:48:47;18.00;44.60
23377;DHT22;14353;46.070;13.222;2022-12-18T06:51:21;18.00;44.50
23377;DHT22;14353;46.070;13.222;2022-12-18T06:53:56;18.00;44.50
23377;DHT22;14353;46.070;13.222;2022-12-18T06:56:22;18.00;44.50
23377;DHT22;14353;46.070;13.222;2022-12-18T06:58:51;18.00;44.50
23377;DHT22;14353;46.070;13.222;2022-12-18T07:01:17;18.00;44.60
23377;DHT22;14353;46.070;13.222;2022-12-18T07:03:43;18.00;44.60
23377;DHT22;14353;46.070;13.222;2022-12-18T07:06:17;18.00;44.60
23377;DHT22;14353;46.070;13.222;2022-12-18T07:08:50;18.00;44.50
23377;DHT22;14353;46.070;13.222;2022-12-18T07:11:19;18.00;44.60
23377;DHT22;14353;46.070;13.222;2022-12-18T07:13:49;18.00;44.50
23377;DHT22;14353;46.070;13.222;2022-12-18T07:16:17;18.00;44.50
23377;DHT22;14353;46.070;13.222;2022-12-18T07:18:49;18.00;44.60
23377;DHT22;14353;46.070;13.222;2022-12-18T07:21:28;18.00;44.60
23377;DHT22;14353;46.070;13.222;2022-12-18T07:23:54;17.90;44.50
23377;DHT22;14353;46.070;13.222;2022-12-18T07:26:21;17.90;44.50
23377;DHT22;14353;46.070;13.222;2022-12-18T07:28:50;18.00;44.50
23377;DHT22;14353;46.070;13.222;2022-12-18T07:31:20;17.90;44.50
23377;DHT22;14353;46.070;13.222;2022-12-18T07:33:47;17.90;44.50
23377;DHT22;14353;46.070;13.222;2022-12-18T07:36:14;18.00;44.50
23377;DHT22;14353;46.070;13.222;2022-12-18T07:38:40;17.90;44.40
23377;DHT22;14353;46.070;13.222;2022-12-18T07:41:11;17.90;44.50
23377;DHT22;14353;46.070;13.222;2022-12-18T07:43:38;18.00;44.60
23377;DHT22;14353;46.070;13.222;2022-12-18T07:46:05;17.90;44.40
23377;DHT22;14353;46.070;13.222;2022-12-18T07:48:31;17.90;44.50
23377;DHT22;14353;46.070;13.222;2022-12-18T07:51:01;18.00;44.50
23377;DHT22;14353;46.070;13.222;2022-12-18T07:53:35;18.00;44.50
23377;DHT22;14353;46.070;13.222;2022-12-18T07:56:08;17.90;44.40
23377;DHT22;14353;46.070;13.222;2022-12-18T07:58:36;18.00;44.40
23377;DHT22;14353;46.070;13.222;2022-12-18T08:01:10;18.00;44.40
23377;DHT22;14353;46.070;13.222;2022-12-18T08:03:36;18.00;44.40
23377;DHT22;14353;46.070;13.222;2022-12-18T08:06:04;18.00;44.40
23377;DHT22;14353;46.070;13.222;2022-12-18T08:08:33;18.00;44.30
23377;DHT22;14353;46.070;13.222;2022-12-18T08:10:59;18.00;44.30
23377;DHT22;14353;46.070;13.222;2022-12-18T08:13:25;18.00;44.30
23377;DHT22;14353;46.070;13.222;2022-12-18T08:16:23;18.00;44.30
23377;DHT22;14353;46.070;13.222;2022-12-18T08:18:51;18.00;44.40
23377;DHT22;14353;46.070;13.222;2022-12-18T08:21:30;18.00;44.30
23377;DHT22;14353;46.070;13.222;2022-12-18T08:23:59;18.00;44.30
23377;DHT22;14353;46.070;13.222;2022-12-18T08:26:27;18.00;45.00
23377;DHT22;14353;46.070;13.222;2022-12-18T08:28:55;18.00;44.20
23377;DHT22;14353;46.070;13.222;2022-12-18T08:31:25;18.00;44.20
23377;DHT22;14353;46.070;13.222;2022-12-18T08:33:52;18.10;44.20
23377;DHT22;14353;46.070;13.222;2022-12-18T08:36:21;18.00;44.20
23377;DHT22;14353;46.070;13.222;2022-12-18T08:38:47;18.10;44.20
23377;DHT22;14353;46.070;13.222;2022-12-18T08:41:15;18.10;44.20
23377;DHT22;14353;46.070;13.222;2022-12-18T08:43:41;18.10;44.20
23377;DHT22;14353;46.070;13.222;2022-12-18T08:46:27;18.10;44.20
23377;DHT22;14353;46.070;13.222;2022-12-18T08:48:56;18.10;44.10
23377;DHT22;14353;46.070;13.222;2022-12-18T08:51:25;18.10;44.00
23377;DHT22;14353;46.070;13.222;2022-12-18T08:53:57;18.10;44.60
23377;DHT22;14353;46.070;13.222;2022-12-18T08:56:29;18.10;43.90
23377;DHT22;14353;46.070;13.222;2022-12-18T08:59:01;18.20;44.00
23377;DHT22;14353;46.070;13.222;2022-12-18T09:01:30;18.20;43.90
23377;DHT22;14353;46.070;13.222;2022-12-18T09:03:58;18.20;43.80
23377;DHT22;14353;46.070;13.222;2022-12-18T09:06:24;18.20;43.80
23377;DHT22;14353;46.070;13.222;2022-12-18T09:08:50;18.20;43.80
23377;DHT22;14353;46.070;13.222;2022-12-18T09:11:22;18.20;43.80
23377;DHT22;14353;46.070;13.222;2022-12-18T09:13:52;18.20;43.80
23377;DHT22;14353;46.070;13.222;2022-12-18T09:16:18;18.20;43.70
23377;DHT22;14353;46.070;13.222;2022-12-18T09:18:45;18.30;43.70
23377;DHT22;14353;46.070;13.222;2022-12-18T09:21:21;18.30;43.70
23377;DHT22;14353;46.070;13.222;2022-12-18T09:23:55;18.30;43.70
23377;DHT22;14353;46.070;13.222;2022-12-18T09:26:25;18.30;43.60
23377;DHT22;14353;46.070;13.222;2022-12-18T09:28:51;18.30;43.60
23377;DHT22;14353;46.070;13.222;2022-12-18T09:31:19;18.30;43.50
23377;DHT22;14353;46.070;13.222;2022-12-18T09:33:46;18.40;43.60
23377;DHT22;14353;46.070;13.222;2022-12-18T09:36:14;18.40;43.50
23377;DHT22;14353;46.070;13.222;2022-12-18T09:38:41;18.40;43.40
23377;DHT22;14353;46.070;13.222;2022-12-18T09:44:41;18.40;43.30
23377;DHT22;14353;46.070;13.222;2022-12-18T09:47:34;18.50;43.30
23377;DHT22;14353;46.070;13.222;2022-12-18T09:50:05;18.50;43.30
23377;DHT22;14353;46.070;13.222;2022-12-18T09:52:53;18.50;43.30
23377;DHT22;14353;46.070;13.222;2022-12-18T09:55:32;18.50;43.20
23377;DHT22;14353;46.070;13.222;2022-12-18T10:03:30;18.60;43.10
23377;DHT22;14353;46.070;13.222;2022-12-18T10:23:04;18.80;42.90
23377;DHT22;14353;46.070;13.222;2022-12-18T10:25:46;18.80;42.90
23377;DHT22;14353;46.070;13.222;2022-12-18T10:28:16;18.90;42.90
23377;DHT22;14353;46.070;13.222;2022-12-18T10:30:42;18.90;42.80
23377;DHT22;14353;46.070;13.222;2022-12-18T10:33:21;19.00;42.80
23377;DHT22;14353;46.070;13.222;2022-12-18T10:35:52;19.00;42.60
23377;DHT22;14353;46.070;13.222;2022-12-18T10:38:23;19.10;42.60
23377;DHT22;14353;46.070;13.222;2022-12-18T10:46:36;19.20;42.20
23377;DHT22;14353;46.070;13.222;2022-12-18T10:49:02;19.20;42.20
23377;DHT22;14353;46.070;13.222;2022-12-18T10:51:40;19.30;42.00
23377;DHT22;14353;46.070;13.222;2022-12-18T10:54:30;19.40;42.00
23377;DHT22;14353;46.070;13.222;2022-12-18T10:59:57;19.60;41.80
23377;DHT22;14353;46.070;13.222;2022-12-18T11:02:38;19.60;41.60
23377;DHT22;14353;46.070;13.222;2022-12-18T11:05:30;19.80;41.30
23377;DHT22;14353;46.070;13.222;2022-12-18T11:07:57;19.90;41.10
23377;DHT22;14353;46.070;13.222;2022-12-18T11:12:56;20.10;40.60
23377;DHT22;14353;46.070;13.222;2022-12-18T11:15:28;20.20;40.40
23377;DHT22;14353;46.070;13.222;2022-12-18T11:18:01;20.30;40.30
23377;DHT22;14353;46.070;13.222;2022-12-18T11:20:35;20.30;40.30
23377;DHT22;14353;46.070;13.222;2022-12-18T11:23:04;20.20;40.20
23377;DHT22;14353;46.070;13.222;2022-12-18T11:25:50;20.20;40.30
23377;DHT22;14353;46.070;13.222;2022-12-18T11:28:27;20.20;40.30
23377;DHT22;14353;46.070;13.222;2022-12-18T11:31:31;20.20;40.40
23377;DHT22;14353;46.070;13.222;2022-12-18T11:36:38;20.10;40.50
23377;DHT22;14353;46.070;13.222;2022-12-18T11:39:28;20.10;40.60
23377;DHT22;14353;46.070;13.222;2022-12-18T11:44:58;20.10;40.70
23377;DHT22;14353;46.070;13.222;2022-12-18T11:53:14;20.10;40.70
23377;DHT22;14353;46.070;13.222;2022-12-18T11:58:42;20.10;40.80
23377;DHT22;14353;46.070;13.222;2022-12-18T12:04:22;20.10;40.80
23377;DHT22;14353;46.070;13.222;2022-12-18T12:23:39;20.20;41.00
23377;DHT22;14353;46.070;13.222;2022-12-18T12:26:11;20.20;40.90
23377;DHT22;14353;46.070;13.222;2022-12-18T12:37:22;20.30;41.00
23377;DHT22;14353;46.070;13.222;2022-12-18T12:40:01;20.30;41.00
23377;DHT22;14353;46.070;13.222;2022-12-18T12:42:38;20.30;40.90
23377;DHT22;14353;46.070;13.222;2022-12-18T12:45:34;20.30;40.90
23377;DHT22;14353;46.070;13.222;2022-12-18T12:48:02;20.30;40.90
23377;DHT22;14353;46.070;13.222;2022-12-18T12:50:34;20.40;40.90
23377;DHT22;14353;46.070;13.222;2022-12-18T12:53:01;20.40;40.90
23377;DHT22;14353;46.070;13.222;2022-12-18T12:55:32;20.40;40.90
23377;DHT22;14353;46.070;13.222;2022-12-18T13:00:35;20.40;40.90
23377;DHT22;14353;46.070;13.222;2022-12-18T13:03:27;20.40;40.90
23377;DHT22;14353;46.070;13.222;2022-12-18T13:06:00;20.50;40.90
23377;DHT22;14353;46.070;13.222;2022-12-18T13:08:30;20.50;40.90
23377;DHT22;14353;46.070;13.222;2022-12-18T13:11:00;20.50;40.90
23377;DHT22;14353;46.070;13.222;2022-12-18T13:13:55;20.50;40.90
23377;DHT22;14353;46.070;13.222;2022-12-18T13:16:23;20.50;40.90
23377;DHT22;14353;46.070;13.222;2022-12-18T13:18:55;20.50;40.80
23377;DHT22;14353;46.070;13.222;2022-12-18T13:21:30;20.50;40.80
23377;DHT22;14353;46.070;13.222;2022-12-18T13:23:57;20.50;40.80
23377;DHT22;14353;46.070;13.222;2022-12-18T13:26:41;20.60;40.90
23377;DHT22;14353;46.070;13.222;2022-12-18T13:29:07;20.60;40.80
23377;DHT22;14353;46.070;13.222;2022-12-18T13:34:26;20.60;40.80
23377;DHT22;14353;46.070;13.222;2022-12-18T13:40:20;20.60;40.70
23377;DHT22;14353;46.070;13.222;2022-12-18T13:42:50;20.70;40.70
23377;DHT22;14353;46.070;13.222;2022-12-18T13:45:42;20.70;40.70
23377;DHT22;14353;46.070;13.222;2022-12-18T13:48:37;20.70;40.70
23377;DHT22;14353;46.070;13.222;2022-12-18T13:51:08;20.70;40.70
23377;DHT22;14353;46.070;13.222;2022-12-18T13:53:53;20.60;40.60
23377;DHT22;14353;46.070;13.222;2022-12-18T13:56:31;20.70;40.70
23377;DHT22;14353;46.070;13.222;2022-12-18T13:59:20;20.70;40.70
23377;DHT22;14353;46.070;13.222;2022-12-18T14:01:53;20.70;41.10
23377;DHT22;14353;46.070;13.222;2022-12-18T14:04:23;20.70;40.60
23377;DHT22;14353;46.070;13.222;2022-12-18T14:06:53;20.70;40.70
23377;DHT22;14353;46.070;13.222;2022-12-18T14:09:28;20.70;40.60
23377;DHT22;14353;46.070;13.222;2022-12-18T14:11:58;20.70;40.60
23377;DHT22;14353;46.070;13.222;2022-12-18T14:14:45;20.70;40.60
23377;DHT22;14353;46.070;13.222;2022-12-18T14:17:13;20.70;40.60
23377;DHT22;14353;46.070;13.222;2022-12-18T14:19:48;20.70;40.60
23377;DHT22;14353;46.070;13.222;2022-12-18T14:22:20;20.70;40.60
23377;DHT22;14353;46.070;13.222;2022-12-18T14:28:30;20.70;40.50
23377;DHT22;14353;46.070;13.222;2022-12-18T14:30:35;20.70;40.60
23377;DHT22;14353;46.070;13.222;2022-12-18T14:33:08;20.70;40.50
23377;DHT22;14353;46.070;13.222;2022-12-18T14:35:43;20.70;40.60
23377;DHT22;14353;46.070;13.222;2022-12-18T14:38:39;20.70;40.60
23377;DHT22;14353;46.070;13.222;2022-12-18T14:41:12;20.70;40.60
23377;DHT22;14353;46.070;13.222;2022-12-18T14:43:40;20.70;40.60
23377;DHT22;14353;46.070;13.222;2022-12-18T14:46:35;20.70;40.70
23377;DHT22;14353;46.070;13.222;2022-12-18T14:49:50;20.70;40.60
23377;DHT22;14353;46.070;13.222;2022-12-18T14:52:27;20.70;40.60
23377;DHT22;14353;46.070;13.222;2022-12-18T14:54:53;20.60;40.50
23377;DHT22;14353;46.070;13.222;2022-12-18T14:57:30;20.60;40.60
23377;DHT22;14353;46.070;13.222;2022-12-18T15:00:22;20.60;40.50
23377;DHT22;14353;46.070;13.222;2022-12-18T15:02:54;20.60;40.60
23377;DHT22;14353;46.070;13.222;2022-12-18T15:05:26;20.60;40.50
23377;DHT22;14353;46.070;13.222;2022-12-18T15:07:54;20.50;40.60
23377;DHT22;14353;46.070;13.222;2022-12-18T15:10:26;20.50;40.60
23377;DHT22;14353;46.070;13.222;2022-12-18T15:18:17;20.40;40.50
23377;DHT22;14353;46.070;13.222;2022-12-18T15:21:07;20.40;40.50
23377;DHT22;14353;46.070;13.222;2022-12-18T15:23:52;20.40;40.70
23377;DHT22;14353;46.070;13.222;2022-12-18T15:26:22;20.30;40.70
23377;DHT22;14353;46.070;13.222;2022-12-18T15:28:54;20.30;40.80
23377;DHT22;14353;46.070;13.222;2022-12-18T15:31:29;20.20;40.90
23377;DHT22;14353;46.070;13.222;2022-12-18T15:36:30;20.20;40.90
23377;DHT22;14353;46.070;13.222;2022-12-18T15:38:56;20.20;40.90
23377;DHT22;14353;46.070;13.222;2022-12-18T15:41:25;20.20;41.00
23377;DHT22;14353;46.070;13.222;2022-12-18T15:46:40;20.10;41.00
23377;DHT22;14353;46.070;13.222;2022-12-18T15:49:09;20.10;41.00
23377;DHT22;14353;46.070;13.222;2022-12-18T15:51:36;20.10;41.10
23377;DHT22;14353;46.070;13.222;2022-12-18T15:54:04;20.00;41.00
23377;DHT22;14353;46.070;13.222;2022-12-18T15:56:35;20.00;41.00
23377;DHT22;14353;46.070;13.222;2022-12-18T15:59:20;20.00;41.00
23377;DHT22;14353;46.070;13.222;2022-12-18T16:01:48;20.00;41.10
23377;DHT22;14353;46.070;13.222;2022-12-18T16:04:16;19.90;41.10
23377;DHT22;14353;46.070;13.222;2022-12-18T16:06:46;19.90;41.10
23377;DHT22;14353;46.070;13.222;2022-12-18T16:09:14;19.90;41.10
23377;DHT22;14353;46.070;13.222;2022-12-18T16:11:43;19.90;41.20
23377;DHT22;14353;46.070;13.222;2022-12-18T16:14:28;19.90;41.30
23377;DHT22;14353;46.070;13.222;2022-12-18T16:16:57;19.80;41.20
23377;DHT22;14353;46.070;13.222;2022-12-18T16:19:23;19.80;41.30
23377;DHT22;14353;46.070;13.222;2022-12-18T16:21:51;19.80;41.20
23377;DHT22;14353;46.070;13.222;2022-12-18T16:24:33;19.80;41.30
23377;DHT22;14353;46.070;13.222;2022-12-18T16:27:07;19.70;41.30
23377;DHT22;14353;46.070;13.222;2022-12-18T16:29:36;19.70;41.30
23377;DHT22;14353;46.070;13.222;2022-12-18T16:32:01;19.70;41.40
23377;DHT22;14353;46.070;13.222;2022-12-18T16:34:29;19.70;41.40
23377;DHT22;14353;46.070;13.222;2022-12-18T16:36:57;19.70;41.40
23377;DHT22;14353;46.070;13.222;2022-12-18T16:39:24;19.70;41.40
23377;DHT22;14353;46.070;13.222;2022-12-18T16:41:56;19.60;41.50
23377;DHT22;14353;46.070;13.222;2022-12-18T16:44:24;19.60;41.50
23377;DHT22;14353;46.070;13.222;2022-12-18T16:46:55;19.60;41.50
23377;DHT22;14353;46.070;13.222;2022-12-18T16:49:36;19.60;41.50
23377;DHT22;14353;46.070;13.222;2022-12-18T16:52:08;19.50;41.50
23377;DHT22;14353;46.070;13.222;2022-12-18T16:54:34;19.50;41.50
23377;DHT22;14353;46.070;13.222;2022-12-18T16:57:01;19.60;41.60
23377;DHT22;14353;46.070;13.222;2022-12-18T16:59:34;19.50;41.60
23377;DHT22;14353;46.070;13.222;2022-12-18T17:02:06;19.50;41.60
23377;DHT22;14353;46.070;13.222;2022-12-18T17:04:36;19.50;41.60
23377;DHT22;14353;46.070;13.222;2022-12-18T17:07:02;19.40;41.50
23377;DHT22;14353;46.070;13.222;2022-12-18T17:09:29;19.50;41.60
23377;DHT22;14353;46.070;13.222;2022-12-18T17:11:58;19.50;41.60
23377;DHT22;14353;46.070;13.222;2022-12-18T17:17:17;19.40;41.60
23377;DHT22;14353;46.070;13.222;2022-12-18T17:19:43;19.40;41.60
23377;DHT22;14353;46.070;13.222;2022-12-18T17:22:19;19.40;41.70
23377;DHT22;14353;46.070;13.222;2022-12-18T17:24:48;19.40;41.70
23377;DHT22;14353;46.070;13.222;2022-12-18T17:27:14;19.40;41.70
23377;DHT22;14353;46.070;13.222;2022-12-18T17:29:43;19.40;41.70
23377;DHT22;14353;46.070;13.222;2022-12-18T17:32:08;19.40;41.70
23377;DHT22;14353;46.070;13.222;2022-12-18T17:34:40;19.30;41.80
23377;DHT22;14353;46.070;13.222;2022-12-18T17:37:11;19.30;41.70
23377;DHT22;14353;46.070;13.222;2022-12-18T17:39:40;19.30;41.80
23377;DHT22;14353;46.070;13.222;2022-12-18T17:42:06;19.30;41.70
23377;DHT22;14353;46.070;13.222;2022-12-18T17:44:50;19.30;41.80
23377;DHT22;14353;46.070;13.222;2022-12-18T17:47:20;19.30;41.80
23377;DHT22;14353;46.070;13.222;2022-12-18T17:49:46;19.30;41.80
23377;DHT22;14353;46.070;13.222;2022-12-18T17:52:12;19.30;41.80
23377;DHT22;14353;46.070;13.222;2022-12-18T17:54:38;19.30;41.80
23377;DHT22;14353;46.070;13.222;2022-12-18T17:57:06;19.20;41.80
23377;DHT22;14353;46.070;13.222;2022-12-18T17:59:35;19.20;41.80